Flight Track Log - Related Links

Times and Time Zones

All times are in EDT time to prevent confusion due to time zone crossing. See the UCA3596 flight status page for this flight to view local times or setup timezone preferences in your user account.

Time Position Orientation Groundspeed Altitude Reporting Facility
EDT Latitude Longitude Course Direction KTS MPH feet Rate Location/Type
Tue 03:02:27 PM 42.2258 -76.0664 209° Southwest 195 224 3,600  Level New York Center
Tue 03:03:27 PM 42.1783 -76.1017 209° Southwest 195 224 5,100 1,550 Climbing New York Center
Tue 03:04:27 PM 42.1308 -76.1397 211° Southwest 202 232 6,700 1,500 Climbing New York Center
Tue 03:05:27 PM 42.0856 -76.1781 212° Southwest 202 232 8,100 1,500 Climbing New York Center
Tue 03:06:27 PM 42.0294 -76.2208 210° Southwest 212 244 9,700 1,500 Climbing New York Center
Tue 03:07:27 PM 41.9817 -76.2617 212° Southwest 217 250 11,100 1,350 Climbing New York Center
Tue 03:08:27 PM 41.9406 -76.2972 213° Southwest 217 250 12,400 1,300 Climbing New York Center
Tue 03:09:27 PM 41.8822 -76.3425 210° Southwest 217 250 13,700 1,150 Climbing New York Center
Tue 03:10:27 PM 41.8369 -76.3775 210° Southwest 217 250 14,700 1,050 Climbing New York Center
Tue 03:11:27 PM 41.7847 -76.4206 212° Southwest 217 250 15,800 650 Climbing New York Center
Tue 03:12:27 PM 41.7286 -76.4658 211° Southwest 227 261 16,000 100 Climbing New York Center
Tue 03:13:27 PM 41.6636 -76.5186 211° Southwest 258 297 16,000  Level New York Center
Tue 03:14:27 PM 41.5900 -76.5761 210° Southwest 282 325 16,000  Level New York Center
Tue 03:15:27 PM 41.5206 -76.6311 211° Southwest 287 330 16,000  Level New York Center
Tue 03:16:27 PM 41.4514 -76.6831 209° Southwest 287 330 16,000  Level New York Center
Tue 03:17:27 PM 41.3925 -76.7333 213° Southwest 287 330 16,000  Level New York Center
Tue 03:18:27 PM 41.3233 -76.7825 208° Southwest 287 330 16,000  Level New York Center
Tue 03:19:27 PM 41.2475 -76.7978 189° South 277 319 16,000  Level New York Center
Tue 03:20:27 PM 41.1697 -76.8128 188° South 282 325 16,000  Level New York Center
Tue 03:21:27 PM 41.0900 -76.8250 187° South 287 330 16,000  Level New York Center
Tue 03:22:27 PM 41.0097 -76.8428 189° South 292 336 16,000  Level New York Center
Tue 03:23:27 PM 40.9214 -76.8594 188° South 297 342 16,000  Level New York Center
Tue 03:24:27 PM 40.8414 -76.8769 189° South 296 341 16,000  Level New York Center
Tue 03:25:27 PM 40.7614 -76.8919 188° South 296 341 16,000  Level New York Center
Tue 03:26:27 PM 40.6808 -76.9175 194° South 296 341 16,000  Level New York Center
Tue 03:27:27 PM 40.6108 -76.9414 195° South 296 341 16,000  Level New York Center
Tue 03:28:27 PM 40.5219 -76.9661 192° South 301 346 16,000  Level New York Center
Tue 03:29:27 PM 40.4542 -76.9900 195° South 301 346 16,000  Level New York Center
Tue 03:30:27 PM 40.3672 -77.0178 194° South 301 346 16,000 -531 Level New York Center
Tue 03:32:39 PM 40.1833 -77.0667 191° South 313 360 14,300 -813 Descending Potomac TRACON
Tue 03:33:39 PM 40.1000 -77.1000 197° South 304 350 13,400 -887 Descending Potomac TRACON
Tue 03:34:34 PM 40.0167 -77.1167 189° South 302 348 12,600 -887 Descending Potomac TRACON
Tue 03:35:34 PM 39.9500 -77.1500 201° Southwest 298 343 11,700 -905 Descending Potomac TRACON
Tue 03:36:40 PM 39.8667 -77.1833 197° South 286 329 10,700 -900 Descending Potomac TRACON
Tue 03:37:34 PM 39.8000 -77.2333 210° Southwest 284 327 9,900 -850 Descending Potomac TRACON
Tue 03:38:40 PM 39.7167 -77.2833 205° Southwest 284 327 9,000 -446 Descending Potomac TRACON
Tue 03:39:35 PM 39.6500 -77.3167 201° Southwest 279 321 9,000  Level Potomac TRACON
Tue 03:40:35 PM 39.5833 -77.3500 201° Southwest 278 320 9,000 -500 Level Potomac TRACON
Tue 03:41:35 PM 39.5000 -77.3500 180° South 282 325 8,000 -1,000 Descending Potomac TRACON
Tue 03:42:35 PM 39.4333 -77.3667 191° South 263 303 7,000 -1,000 Descending Potomac TRACON
Tue 03:43:35 PM 39.3500 -77.3667 180° South 255 293 6,000 -1,000 Descending Potomac TRACON
Tue 03:44:35 PM 39.2833 -77.3667 180° South 261 300 5,000 -1,000 Descending Potomac TRACON
Tue 03:45:35 PM 39.2167 -77.3667 180° South 263 303 4,000 -500 Descending Potomac TRACON
Tue 03:46:35 PM 39.1333 -77.3500 171° South 256 295 4,000 -100 Level Potomac TRACON
Tue 03:47:35 PM 39.0667 -77.3500 180° South 254 292 3,800 -500 Descending Potomac TRACON
Tue 03:48:35 PM 39.0000 -77.3500 180° South 247 284 3,000 -397 Descending Potomac TRACON
Tue 03:49:36 PM 38.9333 -77.3500 180° South 249 287 3,000  Level Potomac TRACON
Tue 03:50:36 PM 38.8667 -77.3500 180° South 249 287 3,000 -316 Level Potomac TRACON
Tue 03:51:30 PM 38.8167 -77.3667 195° South 211 243 2,400 -526 Descending Potomac TRACON
Tue 03:52:30 PM 38.8000 -77.4167 247° West 192 221 2,000 -300 Descending Potomac TRACON
Tue 03:53:30 PM 38.8500 -77.4333 345° North 176 203 1,800 -496 Descending Potomac TRACON
Tue 03:54:31 PM 38.9000 -77.4333 360° North 150 173 1,000 -787 Descending Potomac TRACON

Login

Don't have an account? Register now (free) for customized features, flight alerts, and more!